createdAt,value
2022-09-17T00:00:34.827Z,18.97
2022-09-17T00:03:33.825Z,18.91
2022-09-17T00:06:24.117Z,18.88
2022-09-17T00:09:12.967Z,18.85
2022-09-17T00:12:02.137Z,18.83
2022-09-17T00:14:51.095Z,18.81
2022-09-17T00:17:39.388Z,18.78
2022-09-17T00:20:28.607Z,18.74
2022-09-17T00:23:17.186Z,18.72
2022-09-17T00:26:07.346Z,18.68
2022-09-17T00:28:57.536Z,18.66
2022-09-17T00:31:46.595Z,18.62
2022-09-17T00:34:36.272Z,18.58
2022-09-17T00:37:25.642Z,18.57
2022-09-17T00:40:14.219Z,18.55
2022-09-17T00:43:03.770Z,18.52
2022-09-17T00:45:53.750Z,18.48
2022-09-17T00:48:42.139Z,18.45
2022-09-17T00:51:36.106Z,18.41
2022-09-17T00:54:25.950Z,18.39
2022-09-17T00:57:16.075Z,18.38
2022-09-17T01:00:07.485Z,18.36
2022-09-17T01:02:57.136Z,18.34
2022-09-17T01:05:49.802Z,18.30
2022-09-17T01:08:51.846Z,18.27
2022-09-17T01:11:47.013Z,18.23
2022-09-17T01:14:51.849Z,18.20
2022-09-17T01:17:45.273Z,18.17
2022-09-17T01:21:15.245Z,18.14
2022-09-17T01:24:37.821Z,18.11
2022-09-17T01:28:02.774Z,18.07
2022-09-17T01:31:19.221Z,18.04
2022-09-17T01:34:20.685Z,17.99
2022-09-17T01:37:15.357Z,17.97
2022-09-17T01:40:09.023Z,17.94
2022-09-17T01:43:05.382Z,17.92
2022-09-17T01:46:00.690Z,17.89
2022-09-17T01:48:56.632Z,17.87
2022-09-17T01:51:48.917Z,17.82
2022-09-17T01:54:41.733Z,17.79
2022-09-17T01:57:36.566Z,17.75
2022-09-17T02:00:25.556Z,17.72
2022-09-17T02:03:18.463Z,17.69
2022-09-17T02:06:13.088Z,17.65
2022-09-17T02:09:06.124Z,17.60
2022-09-17T02:12:00.633Z,17.58
2022-09-17T02:14:52.304Z,17.55
2022-09-17T02:17:46.552Z,17.55
2022-09-17T02:20:43.034Z,17.54
2022-09-17T02:23:37.790Z,17.51
2022-09-17T02:26:28.846Z,17.52
2022-09-17T02:29:26.149Z,17.50
2022-09-17T02:32:15.111Z,17.43
2022-09-17T02:35:03.866Z,17.39
2022-09-17T02:37:52.828Z,17.35
2022-09-17T02:40:50.557Z,17.31
2022-09-17T02:43:47.744Z,17.29
2022-09-17T02:46:57.641Z,17.25
2022-09-17T02:50:02.939Z,17.23
2022-09-17T02:53:06.239Z,17.22
2022-09-17T02:56:07.075Z,17.20
2022-09-17T02:59:01.565Z,17.20
2022-09-17T03:01:55.834Z,17.20
2022-09-17T03:04:46.389Z,17.17
2022-09-17T03:07:35.613Z,17.16
2022-09-17T03:10:27.557Z,17.15
2022-09-17T03:13:15.369Z,17.15
2022-09-17T03:16:05.819Z,17.13
2022-09-17T03:18:54.731Z,17.11
2022-09-17T03:21:44.091Z,17.11
2022-09-17T03:24:32.650Z,17.08
2022-09-17T03:27:22.223Z,17.07
2022-09-17T03:30:12.270Z,17.07
2022-09-17T03:33:01.118Z,17.05
2022-09-17T03:35:50.290Z,17.05
2022-09-17T03:38:39.082Z,17.03
2022-09-17T03:41:28.662Z,17.00
2022-09-17T03:44:18.811Z,16.97
2022-09-17T03:47:08.222Z,16.95
2022-09-17T03:50:14.613Z,16.93
2022-09-17T03:53:03.139Z,16.90
2022-09-17T03:55:52.299Z,16.88
2022-09-17T03:58:41.053Z,16.86
2022-09-17T04:01:29.849Z,16.85
2022-09-17T04:04:18.973Z,16.83
2022-09-17T04:07:07.936Z,16.82
2022-09-17T04:09:56.893Z,16.80
2022-09-17T04:12:45.855Z,16.80
2022-09-17T04:15:34.200Z,16.77
2022-09-17T04:18:23.978Z,16.76
2022-09-17T04:21:12.939Z,16.75
2022-09-17T04:24:02.309Z,16.76
2022-09-17T04:26:51.472Z,16.75
2022-09-17T04:29:40.057Z,16.72
2022-09-17T04:32:28.983Z,16.72
2022-09-17T04:35:18.503Z,16.69
2022-09-17T04:38:06.505Z,16.70
2022-09-17T04:40:56.886Z,16.69
2022-09-17T04:43:46.900Z,16.70
2022-09-17T04:46:35.680Z,16.72
2022-09-17T04:49:24.380Z,16.74
2022-09-17T04:52:13.133Z,16.75
2022-09-17T04:55:02.097Z,16.77
2022-09-17T04:57:53.719Z,16.80
2022-09-17T05:00:42.911Z,16.83
2022-09-17T05:03:31.432Z,16.87
2022-09-17T05:06:20.188Z,16.92
2022-09-17T05:09:09.763Z,16.97
2022-09-17T05:11:58.519Z,17.04
2022-09-17T05:14:47.478Z,17.08
2022-09-17T05:17:35.824Z,17.15
2022-09-17T05:20:24.577Z,17.22
2022-09-17T05:23:13.334Z,17.29
2022-09-17T05:26:02.376Z,17.37
2022-09-17T05:28:51.456Z,17.45
2022-09-17T05:31:40.665Z,17.54
2022-09-17T05:34:29.781Z,17.62
2022-09-17T05:37:17.931Z,17.72
2022-09-17T05:40:10.492Z,17.80
2022-09-17T05:43:01.583Z,17.90
2022-09-17T05:45:50.133Z,17.99
2022-09-17T05:48:39.300Z,18.10
2022-09-17T05:51:28.460Z,18.18
2022-09-17T05:54:17.220Z,18.29
2022-09-17T05:57:07.126Z,18.40
2022-09-17T05:59:55.755Z,18.50
2022-09-17T06:02:44.794Z,18.60
2022-09-17T06:05:33.674Z,18.71
2022-09-17T06:08:22.632Z,18.82
2022-09-17T06:11:11.366Z,18.93
2022-09-17T06:13:59.780Z,19.04
2022-09-17T06:16:52.173Z,19.15
2022-09-17T06:19:40.928Z,19.26
2022-09-17T06:22:30.883Z,19.39
2022-09-17T06:25:20.283Z,19.50
2022-09-17T06:28:08.272Z,19.61
2022-09-17T06:31:01.434Z,19.73
2022-09-17T06:33:50.852Z,19.85
2022-09-17T06:36:39.406Z,19.97
2022-09-17T06:39:27.746Z,20.10
2022-09-17T06:42:16.707Z,20.21
2022-09-17T06:45:11.106Z,20.32
2022-09-17T06:48:07.085Z,20.44
2022-09-17T06:50:56.693Z,20.55
2022-09-17T06:53:44.959Z,20.66
2022-09-17T06:56:34.005Z,20.79
2022-09-17T06:59:22.549Z,20.89
2022-09-17T07:02:11.548Z,20.99
2022-09-17T07:05:00.068Z,21.08
2022-09-17T07:07:48.819Z,21.17
2022-09-17T07:10:37.776Z,21.25
2022-09-17T07:13:26.941Z,21.34
2022-09-17T07:16:15.755Z,21.43
2022-09-17T07:19:06.950Z,21.49
2022-09-17T07:21:55.460Z,21.56
2022-09-17T07:24:44.625Z,21.64
2022-09-17T07:27:33.381Z,21.71
2022-09-17T07:30:21.937Z,21.77
2022-09-17T07:33:11.300Z,21.85
2022-09-17T07:36:03.127Z,21.93
2022-09-17T07:38:50.450Z,22.02
2022-09-17T07:41:39.409Z,22.08
2022-09-17T07:44:28.780Z,22.14
2022-09-17T07:47:17.532Z,22.24
2022-09-17T07:50:09.122Z,22.32
2022-09-17T07:52:57.501Z,22.41
2022-09-17T07:55:54.103Z,22.50
2022-09-17T07:58:42.342Z,22.59
2022-09-17T08:01:33.765Z,22.65
2022-09-17T08:04:23.173Z,22.74
2022-09-17T08:07:13.523Z,22.83
2022-09-17T08:10:02.321Z,22.92
2022-09-17T08:12:55.338Z,23.01
2022-09-17T08:15:44.169Z,23.11
2022-09-17T08:18:33.914Z,23.19
2022-09-17T08:21:23.698Z,23.25
2022-09-17T08:24:13.268Z,23.35
2022-09-17T08:27:02.021Z,23.44
2022-09-17T08:29:50.983Z,23.53
2022-09-17T08:32:39.735Z,23.63
2022-09-17T08:35:28.086Z,23.74
2022-09-17T08:38:16.616Z,23.82
2022-09-17T08:41:19.319Z,23.96
2022-09-17T08:44:21.998Z,24.08
2022-09-17T08:47:19.906Z,24.15
2022-09-17T08:50:15.531Z,24.25
2022-09-17T08:53:37.992Z,24.35
2022-09-17T08:56:26.837Z,24.45
2022-09-17T08:59:24.348Z,24.54
2022-09-17T09:02:25.710Z,24.65
2022-09-17T09:05:17.356Z,24.70
2022-09-17T09:08:07.026Z,24.78
2022-09-17T09:10:58.139Z,24.81
2022-09-17T09:13:49.957Z,24.87
2022-09-17T09:16:41.588Z,24.98
2022-09-17T09:19:33.992Z,25.08
2022-09-17T09:22:46.203Z,25.13
2022-09-17T09:25:46.428Z,25.22
2022-09-17T09:28:45.146Z,25.31
2022-09-17T09:32:15.776Z,25.34
2022-09-17T09:35:16.388Z,25.38
2022-09-17T09:38:13.129Z,25.39
2022-09-17T09:41:09.667Z,25.42
2022-09-17T09:44:04.471Z,25.46
2022-09-17T09:47:31.823Z,25.48
2022-09-17T09:51:04.609Z,25.51
2022-09-17T09:54:00.126Z,25.55
2022-09-17T09:56:57.896Z,25.58
2022-09-17T09:59:46.645Z,25.60
2022-09-17T10:02:35.904Z,25.64
2022-09-17T10:05:25.348Z,25.70
2022-09-17T10:08:15.140Z,25.74
2022-09-17T10:11:06.174Z,25.80
2022-09-17T10:14:13.975Z,25.84
2022-09-17T10:17:20.146Z,25.86
2022-09-17T10:20:20.736Z,25.87
2022-09-17T10:23:14.140Z,25.90
2022-09-17T10:26:03.825Z,25.91
2022-09-17T10:28:54.108Z,25.95
2022-09-17T10:31:50.565Z,25.97
2022-09-17T10:34:41.465Z,25.93
2022-09-17T10:37:43.976Z,26.00
2022-09-17T10:40:33.639Z,26.06
2022-09-17T10:43:25.834Z,26.03
2022-09-17T10:46:25.350Z,25.98
2022-09-17T10:49:29.764Z,25.90
2022-09-17T10:52:27.055Z,25.91
2022-09-17T10:55:26.062Z,25.91
2022-09-17T10:58:30.303Z,25.90
2022-09-17T11:01:29.853Z,25.89
2022-09-17T11:04:25.988Z,25.85
2022-09-17T11:07:38.693Z,25.88
2022-09-17T11:10:34.410Z,25.90
2022-09-17T11:13:34.223Z,25.93
2022-09-17T11:16:40.068Z,25.97
2022-09-17T11:19:45.116Z,26.05
2022-09-17T11:22:50.049Z,26.07
2022-09-17T11:25:54.354Z,26.08
2022-09-17T11:29:00.276Z,26.11
2022-09-17T11:31:56.285Z,26.14
2022-09-17T11:34:53.329Z,26.16
2022-09-17T11:37:48.535Z,26.18
2022-09-17T11:40:42.963Z,26.18
2022-09-17T11:43:35.872Z,26.20
2022-09-17T11:46:29.244Z,26.21
2022-09-17T11:49:29.743Z,26.22
2022-09-17T11:52:23.726Z,26.23
2022-09-17T11:55:23.780Z,26.24
2022-09-17T11:58:15.796Z,26.23
2022-09-17T12:01:05.447Z,26.20
2022-09-17T12:03:58.802Z,26.18
2022-09-17T12:06:54.611Z,26.18
2022-09-17T12:09:45.528Z,26.19
2022-09-17T12:12:49.783Z,26.19
2022-09-17T12:15:46.890Z,26.20
2022-09-17T12:18:50.960Z,26.21
2022-09-17T12:21:44.213Z,26.21
2022-09-17T12:24:33.451Z,26.21
2022-09-17T12:27:38.340Z,26.20
2022-09-17T12:30:36.150Z,26.20
2022-09-17T12:33:33.713Z,26.18
2022-09-17T12:36:47.996Z,26.16
2022-09-17T12:39:56.363Z,26.12
2022-09-17T12:43:10.045Z,26.07
2022-09-17T12:46:17.636Z,25.99
2022-09-17T12:49:34.645Z,25.93
2022-09-17T12:52:40.595Z,25.86
2022-09-17T12:55:54.334Z,25.78
2022-09-17T12:58:59.135Z,25.69
2022-09-17T13:01:52.765Z,25.61
2022-09-17T13:05:02.017Z,25.53
2022-09-17T13:08:24.686Z,25.43
2022-09-17T13:11:30.176Z,25.38
2022-09-17T13:14:25.551Z,25.30
2022-09-17T13:17:22.328Z,25.24
2022-09-17T13:20:19.806Z,25.19
2022-09-17T13:23:10.280Z,25.14
2022-09-17T13:26:00.469Z,25.10
2022-09-17T13:28:51.703Z,25.07
2022-09-17T13:31:50.472Z,25.04
2022-09-17T13:34:39.843Z,25.02
2022-09-17T13:37:29.827Z,25.02
2022-09-17T13:40:23.743Z,25.02
2022-09-17T13:43:15.731Z,25.01
2022-09-17T13:46:12.116Z,25.01
2022-09-17T13:49:06.105Z,25.01
2022-09-17T13:51:56.746Z,25.02
2022-09-17T13:54:46.527Z,25.04
2022-09-17T13:57:46.745Z,25.08
2022-09-17T14:00:55.841Z,25.15
2022-09-17T14:03:56.495Z,25.19
2022-09-17T14:06:53.098Z,25.22
2022-09-17T14:09:56.578Z,25.26
2022-09-17T14:13:26.403Z,25.27
2022-09-17T14:16:36.401Z,25.30
2022-09-17T14:19:33.647Z,25.32
2022-09-17T14:22:25.585Z,25.35
2022-09-17T14:25:19.650Z,25.36
2022-09-17T14:28:18.892Z,25.32
2022-09-17T14:31:16.936Z,25.32
2022-09-17T14:34:12.089Z,25.31
2022-09-17T14:37:02.174Z,25.29
2022-09-17T14:39:52.340Z,25.26
2022-09-17T14:42:41.713Z,25.23
2022-09-17T14:45:33.844Z,25.18
2022-09-17T14:48:29.223Z,25.14
2022-09-17T14:51:29.153Z,25.11
2022-09-17T14:54:27.253Z,25.08
2022-09-17T14:57:27.070Z,25.07
2022-09-17T15:00:24.575Z,25.04
2022-09-17T15:03:23.226Z,25.02
2022-09-17T15:06:21.571Z,24.98
2022-09-17T15:09:16.031Z,24.92
2022-09-17T15:12:07.138Z,24.86
2022-09-17T15:14:57.226Z,24.80
2022-09-17T15:17:46.216Z,24.74
2022-09-17T15:20:35.687Z,24.70
2022-09-17T15:23:27.468Z,24.65
2022-09-17T15:26:22.950Z,24.63
2022-09-17T15:29:13.520Z,24.57
2022-09-17T15:32:06.125Z,24.54
2022-09-17T15:35:30.529Z,24.51
2022-09-17T15:38:27.050Z,24.43
2022-09-17T15:41:41.480Z,24.39
2022-09-17T15:44:31.654Z,24.35
2022-09-17T15:47:50.053Z,24.30
2022-09-17T15:50:53.414Z,24.24
2022-09-17T15:53:53.769Z,24.17
2022-09-17T15:56:43.214Z,24.12
2022-09-17T15:59:34.488Z,24.10
2022-09-17T16:02:31.664Z,24.07
2022-09-17T16:05:54.177Z,24.01
2022-09-17T16:08:46.953Z,23.97
2022-09-17T16:11:35.738Z,23.92
2022-09-17T16:14:24.297Z,23.86
2022-09-17T16:17:27.943Z,23.79
2022-09-17T16:20:21.352Z,23.74
2022-09-17T16:23:10.417Z,23.70
2022-09-17T16:25:59.173Z,23.64
2022-09-17T16:28:50.324Z,23.60
2022-09-17T16:31:38.219Z,23.53
2022-09-17T16:34:27.690Z,23.45
2022-09-17T16:37:16.445Z,23.38
2022-09-17T16:40:08.834Z,23.29
2022-09-17T16:42:59.868Z,23.23
2022-09-17T16:46:00.254Z,23.15
2022-09-17T16:48:51.948Z,23.07
2022-09-17T16:51:39.475Z,23.00
2022-09-17T16:54:27.479Z,22.92
2022-09-17T16:57:15.959Z,22.86
2022-09-17T17:00:10.716Z,22.81
2022-09-17T17:02:59.258Z,22.74
2022-09-17T17:05:47.958Z,22.67
2022-09-17T17:08:37.125Z,22.62
2022-09-17T17:11:27.430Z,22.55
2022-09-17T17:14:16.077Z,22.40
2022-09-17T17:17:04.619Z,22.34
2022-09-17T17:19:52.967Z,22.25
2022-09-17T17:22:42.874Z,22.16
2022-09-17T17:25:32.114Z,22.08
2022-09-17T17:28:21.074Z,22.00
2022-09-17T17:31:11.527Z,21.93
2022-09-17T17:33:59.812Z,21.91
2022-09-17T17:36:50.815Z,21.88
2022-09-17T17:39:38.963Z,21.85
2022-09-17T17:42:35.219Z,21.81
2022-09-17T17:45:24.465Z,21.77
2022-09-17T17:48:13.009Z,21.73
2022-09-17T17:51:05.169Z,21.67
2022-09-17T17:53:54.001Z,21.65
2022-09-17T17:56:42.552Z,21.61
2022-09-17T17:59:30.757Z,21.58
2022-09-17T18:02:19.794Z,21.53
2022-09-17T18:05:11.190Z,21.49
2022-09-17T18:07:59.829Z,21.46
2022-09-17T18:10:59.709Z,21.42
2022-09-17T18:13:50.793Z,21.38
2022-09-17T18:16:39.854Z,21.35
2022-09-17T18:19:28.157Z,21.33
2022-09-17T18:22:17.898Z,21.29
2022-09-17T18:25:09.230Z,21.25
2022-09-17T18:27:58.321Z,21.21
2022-09-17T18:30:48.712Z,21.16
2022-09-17T18:33:37.465Z,21.12
2022-09-17T18:36:27.041Z,21.09
2022-09-17T18:39:56.455Z,21.04
2022-09-17T18:42:25.449Z,21.00
2022-09-17T18:45:13.991Z,20.94
2022-09-17T18:48:04.795Z,20.90
2022-09-17T18:51:00.184Z,20.87
2022-09-17T18:53:51.595Z,20.83
2022-09-17T18:56:41.930Z,20.80
2022-09-17T18:59:30.365Z,20.77
2022-09-17T19:02:19.716Z,20.75
2022-09-17T19:05:09.976Z,20.72
2022-09-17T19:07:58.368Z,20.66
2022-09-17T19:10:52.658Z,20.62
2022-09-17T19:13:43.047Z,20.60
2022-09-17T19:16:32.097Z,20.58
2022-09-17T19:19:20.968Z,20.56
2022-09-17T19:22:09.518Z,20.55
2022-09-17T19:24:58.080Z,20.51
2022-09-17T19:27:47.030Z,20.50
2022-09-17T19:30:36.403Z,20.49
2022-09-17T19:33:24.949Z,20.46
2022-09-17T19:36:16.391Z,20.43
2022-09-17T19:39:05.329Z,20.41
2022-09-17T19:41:54.697Z,20.39
2022-09-17T19:44:43.864Z,20.36
2022-09-17T19:47:33.233Z,20.34
2022-09-17T19:50:21.989Z,20.30
2022-09-17T19:53:10.745Z,20.28
2022-09-17T19:55:59.298Z,20.25
2022-09-17T19:58:48.297Z,20.22
2022-09-17T20:01:37.068Z,20.20
2022-09-17T20:04:26.380Z,20.19
2022-09-17T20:07:14.930Z,20.18
2022-09-17T20:10:04.914Z,20.16
2022-09-17T20:12:53.667Z,20.15
2022-09-17T20:15:42.062Z,20.15
2022-09-17T20:18:31.382Z,20.14
2022-09-17T20:21:21.982Z,20.13
2022-09-17T20:24:11.183Z,20.11
2022-09-17T20:26:59.497Z,20.10
2022-09-17T20:29:48.464Z,20.08
2022-09-17T20:32:37.824Z,20.07
2022-09-17T20:35:26.577Z,20.06
2022-09-17T20:41:24.157Z,20.02
2022-09-17T20:44:14.357Z,20.01
2022-09-17T20:47:05.174Z,20.00
2022-09-17T20:49:55.133Z,19.97
2022-09-17T20:52:44.099Z,19.95
2022-09-17T20:55:32.847Z,19.92
2022-09-17T20:58:21.401Z,19.91
2022-09-17T21:01:12.996Z,19.88
2022-09-17T21:04:04.386Z,19.86
2022-09-17T21:06:54.768Z,19.83
2022-09-17T21:09:43.461Z,19.81
2022-09-17T21:12:31.933Z,19.78
2022-09-17T21:15:20.895Z,19.75
2022-09-17T21:18:09.853Z,19.74
2022-09-17T21:21:00.635Z,19.73
2022-09-17T21:23:50.460Z,19.69
2022-09-17T21:26:39.194Z,19.68
2022-09-17T21:29:27.746Z,19.67
2022-09-17T21:32:16.087Z,19.66
2022-09-17T21:35:05.457Z,19.62
2022-09-17T21:37:55.240Z,19.61
2022-09-17T21:40:44.833Z,19.60
2022-09-17T21:43:34.388Z,19.59
2022-09-17T21:46:25.849Z,19.58
2022-09-17T21:49:15.897Z,19.58
2022-09-17T21:52:05.365Z,19.57
2022-09-17T21:54:53.010Z,19.57
2022-09-17T21:57:42.055Z,19.57
2022-09-17T22:00:30.811Z,19.56
2022-09-17T22:03:19.414Z,19.56
2022-09-17T22:06:10.622Z,19.56
2022-09-17T22:09:00.785Z,19.55
2022-09-17T22:11:49.724Z,19.54
2022-09-17T22:14:38.683Z,19.54
2022-09-17T22:17:27.230Z,19.53
2022-09-17T22:20:16.396Z,19.50
2022-09-17T22:23:05.536Z,19.49
2022-09-17T22:26:02.718Z,19.47
2022-09-17T22:28:52.044Z,19.44
2022-09-17T22:31:41.562Z,19.42
2022-09-17T22:34:30.206Z,19.42
2022-09-17T22:37:18.967Z,19.39
2022-09-17T22:40:11.871Z,19.37
2022-09-17T22:43:00.982Z,19.33
2022-09-17T22:45:49.528Z,19.30
2022-09-17T22:48:38.696Z,19.28
2022-09-17T22:51:28.613Z,19.24
2022-09-17T22:54:18.475Z,19.22
2022-09-17T22:57:07.827Z,19.18
2022-09-17T22:59:56.239Z,19.16
2022-09-17T23:02:44.959Z,19.13
2022-09-17T23:05:34.094Z,19.09
2022-09-17T23:08:23.056Z,19.06
2022-09-17T23:11:19.086Z,19.03
2022-09-17T23:14:09.495Z,19.01
2022-09-17T23:16:58.126Z,18.97
2022-09-17T23:19:46.677Z,18.94
2022-09-17T23:22:35.633Z,18.90
2022-09-17T23:25:24.393Z,18.87
2022-09-17T23:28:13.145Z,18.84
2022-09-17T23:31:08.486Z,18.81
2022-09-17T23:33:59.873Z,18.78
2022-09-17T23:36:49.654Z,18.74
2022-09-17T23:39:38.223Z,18.73
2022-09-17T23:42:26.959Z,18.70
2022-09-17T23:45:15.920Z,18.68
2022-09-17T23:48:04.880Z,18.67
2022-09-17T23:50:53.844Z,18.62
2022-09-17T23:53:42.798Z,18.58
2022-09-17T23:56:31.350Z,18.56
2022-09-17T23:59:20.105Z,18.54
